Time;durP1;ratioP1;P1;durP2;ratioP2;P2;SDS_P1;SDS_P2;PMS_P1;PMS_P2;Temp;Humidity;BMP_temperature;BMP_pressure;BME280_temperature;BME280_humidity;BME280_pressure;Samples;Min_cycle;Max_cycle;Signal;HPM_P1;HPM_P2
2021/03/13 00:01:57;;;;;;;7.75;3.97;;;-5.70;82.30;;;;;;5032726;28;20037;-75
2021/03/13 00:04:22;;;;;;;10.65;4.40;;;-5.70;82.20;;;;;;5029880;28;20536;-75
2021/03/13 00:06:48;;;;;;;10.90;5.30;;;-5.60;82.40;;;;;;5027586;28;20116;-77
2021/03/13 00:09:14;;;;;;;5.30;4.68;;;-5.60;82.30;;;;;;5032174;28;20470;-76
2021/03/13 00:11:40;;;;;;;10.35;5.75;;;-5.50;81.90;;;;;;5032094;28;20034;-76
2021/03/13 00:14:05;;;;;;;9.05;6.07;;;-5.50;81.60;;;;;;5032590;28;20037;-75
2021/03/13 00:16:31;;;;;;;4.75;2.70;;;-5.40;81.50;;;;;;5032701;28;20109;-75
2021/03/13 00:18:57;;;;;;;9.05;4.43;;;-5.40;80.30;;;;;;5032356;28;20030;-75
2021/03/13 00:21:25;;;;;;;8.43;3.95;;;-5.40;79.70;;;;;;5032322;28;20048;-75
2021/03/13 00:23:53;;;;;;;8.63;4.07;;;-5.40;79.80;;;;;;5032010;28;20451;-75
2021/03/13 00:26:19;;;;;;;8.70;4.55;;;-5.40;79.50;;;;;;5031625;28;20040;-76
2021/03/13 00:28:44;;;;;;;10.10;4.63;;;-5.30;79.40;;;;;;5032151;28;20022;-74
2021/03/13 00:31:10;;;;;;;7.97;5.13;;;-5.30;78.90;;;;;;5032285;28;20091;-76
2021/03/13 00:33:37;;;;;;;11.95;5.22;;;-5.30;78.40;;;;;;5032335;28;20034;-76
2021/03/13 00:36:04;;;;;;;5.60;3.47;;;-5.20;78.30;;;;;;5032248;28;20052;-76
2021/03/13 00:38:30;;;;;;;7.50;4.10;;;-5.20;77.80;;;;;;5032057;28;20025;-75
2021/03/13 00:40:56;;;;;;;5.63;3.83;;;-5.20;77.60;;;;;;5027278;28;20014;-76
2021/03/13 00:43:22;;;;;;;7.22;4.63;;;-5.20;77.80;;;;;;5025216;28;20471;-75
2021/03/13 00:45:48;;;;;;;8.93;5.07;;;-5.20;78.30;;;;;;5031715;28;20030;-74
2021/03/13 00:48:14;;;;;;;7.78;4.28;;;-5.20;78.70;;;;;;5031337;28;20014;-75
2021/03/13 00:50:43;;;;;;;9.75;4.25;;;-5.20;79.10;;;;;;5030024;28;20018;-74
2021/03/13 00:53:09;;;;;;;6.20;3.72;;;-5.30;79.10;;;;;;5032290;28;20056;-75
2021/03/13 00:55:36;;;;;;;11.40;4.72;;;-5.30;79.50;;;;;;5032275;28;20553;-75
2021/03/13 00:58:03;;;;;;;8.05;4.25;;;-5.30;79.60;;;;;;5024318;28;20130;-76
2021/03/13 01:00:28;;;;;;;6.40;3.97;;;-5.30;79.60;;;;;;5031795;28;20054;-75
2021/03/13 01:02:55;;;;;;;6.50;4.30;;;-5.30;79.70;;;;;;5014816;28;20053;-76
2021/03/13 01:05:21;;;;;;;9.15;5.93;;;-5.20;79.80;;;;;;5032522;28;20105;-76
2021/03/13 01:07:47;;;;;;;11.50;6.50;;;-5.20;79.80;;;;;;5016177;28;20488;-78
2021/03/13 01:10:25;;;;;;;10.57;5.43;;;-5.20;79.70;;;;;;5018899;28;20013;-76
2021/03/13 01:12:51;;;;;;;11.75;5.07;;;-5.10;79.90;;;;;;5036109;28;20045;-76
2021/03/13 01:15:20;;;;;;;6.60;4.88;;;-5.10;79.60;;;;;;5036492;28;20017;-75
2021/03/13 01:17:46;;;;;;;7.32;4.68;;;-5.10;80.50;;;;;;5036625;28;20100;-77
2021/03/13 01:20:13;;;;;;;8.35;3.90;;;-5.20;80.10;;;;;;5035916;28;20075;-76
2021/03/13 01:22:40;;;;;;;6.93;3.85;;;-5.20;80.30;;;;;;5036406;28;20116;-76
2021/03/13 01:25:07;;;;;;;7.47;4.25;;;-5.20;80.80;;;;;;5039050;28;20486;-76
2021/03/13 01:27:33;;;;;;;17.35;6.78;;;-5.20;81.20;;;;;;5030396;28;20057;-75
2021/03/13 01:29:59;;;;;;;9.13;6.07;;;-5.20;81.80;;;;;;5039380;28;20030;-76
2021/03/13 01:32:25;;;;;;;6.55;4.20;;;-5.20;82.00;;;;;;5048391;28;20017;-76
2021/03/13 01:34:51;;;;;;;9.85;5.15;;;-5.20;82.00;;;;;;5047384;28;20100;-75
2021/03/13 01:37:20;;;;;;;9.55;5.38;;;-5.20;82.10;;;;;;5017841;28;20029;-76
2021/03/13 01:39:46;;;;;;;7.65;4.25;;;-5.20;82.50;;;;;;5035631;28;20025;-76
2021/03/13 01:42:12;;;;;;;8.50;4.93;;;-5.20;82.50;;;;;;5035098;28;20029;-76
2021/03/13 01:44:38;;;;;;;14.80;5.10;;;-5.20;83.80;;;;;;5035144;28;20109;-77
2021/03/13 01:47:04;;;;;;;5.78;3.97;;;-5.20;83.80;;;;;;5033410;28;20061;-76
2021/03/13 01:49:32;;;;;;;14.80;7.68;;;-5.30;84.30;;;;;;5032151;28;20014;-76
2021/03/13 01:51:59;;;;;;;11.95;6.10;;;-5.30;85.40;;;;;;5039354;28;20076;-77
2021/03/13 01:54:25;;;;;;;14.15;5.35;;;-5.30;85.10;;;;;;5035103;28;20034;-75
2021/03/13 01:56:51;;;;;;;12.90;5.85;;;-5.30;85.30;;;;;;5035111;28;20402;-75
2021/03/13 01:59:20;;;;;;;7.53;5.32;;;-5.30;85.60;;;;;;5034793;28;20132;-76
2021/03/13 02:01:47;;;;;;;12.65;6.57;;;-5.40;86.00;;;;;;5034940;28;20104;-76
2021/03/13 02:04:16;;;;;;;8.97;5.40;;;-5.40;86.30;;;;;;5028510;28;20421;-76
2021/03/13 02:07:03;;;;;;;7.80;4.88;;;-5.40;86.50;;;;;;5027278;28;20364;-77
2021/03/13 02:09:34;;;;;;;15.07;7.85;;;-5.40;86.80;;;;;;5023367;28;20029;-76
2021/03/13 02:12:30;;;;;;;14.90;6.38;;;-5.40;86.80;;;;;;5034809;28;20026;-75
2021/03/13 02:15:05;;;;;;;9.57;5.85;;;-5.50;87.10;;;;;;5034623;28;20026;-78
2021/03/13 02:17:37;;;;;;;12.07;5.45;;;-5.50;87.40;;;;;;5034545;28;20071;-76
2021/03/13 02:20:30;;;;;;;9.20;4.20;;;-5.50;87.60;;;;;;5033640;28;20017;-76
2021/03/13 02:22:59;;;;;;;9.90;5.32;;;-5.40;87.60;;;;;;5021364;28;20037;-78
2021/03/13 02:25:43;;;;;;;6.57;3.85;;;-5.40;87.30;;;;;;5029558;28;20079;-76
2021/03/13 02:28:34;;;;;;;13.15;6.03;;;-5.40;87.20;;;;;;5016362;28;20380;-76
2021/03/13 02:31:01;;;;;;;12.60;6.78;;;-5.50;87.20;;;;;;5015067;28;20033;-77
2021/03/13 02:33:31;;;;;;;12.02;5.75;;;-5.40;87.50;;;;;;5034387;28;20022;-76
2021/03/13 02:36:03;;;;;;;9.38;4.82;;;-5.40;87.00;;;;;;5012751;28;20022;-76
2021/03/13 02:38:39;;;;;;;11.70;4.50;;;-5.40;87.00;;;;;;5027805;28;20470;-76
2021/03/13 02:41:15;;;;;;;13.35;4.90;;;-5.40;87.00;;;;;;5032855;28;20389;-77
2021/03/13 02:43:49;;;;;;;10.38;7.55;;;-5.40;87.10;;;;;;5034011;28;20021;-75
2021/03/13 02:46:18;;;;;;;8.45;4.70;;;-5.40;87.20;;;;;;5013321;28;20415;-76
2021/03/13 02:48:47;;;;;;;12.73;6.88;;;-5.40;87.30;;;;;;5036511;28;20021;-75
2021/03/13 02:51:16;;;;;;;21.08;7.85;;;-5.40;87.80;;;;;;5033888;28;20017;-75
2021/03/13 02:53:46;;;;;;;8.88;5.10;;;-5.40;88.20;;;;;;5014773;28;20435;-75
2021/03/13 02:56:12;;;;;;;10.75;6.30;;;-5.30;88.10;;;;;;5033949;28;20584;-75
2021/03/13 02:58:39;;;;;;;9.05;5.63;;;-5.30;88.20;;;;;;5033473;28;20057;-76
2021/03/13 03:01:05;;;;;;;11.38;6.97;;;-5.30;88.30;;;;;;5040041;28;20042;-75
2021/03/13 03:03:33;;;;;;;12.15;6.30;;;-5.40;88.30;;;;;;5041430;28;20386;-74
2021/03/13 03:05:59;;;;;;;10.65;6.15;;;-5.30;88.60;;;;;;5034152;28;20021;-74
2021/03/13 03:08:26;;;;;;;14.23;5.53;;;-5.30;88.60;;;;;;5041473;28;20029;-75
2021/03/13 03:10:52;;;;;;;11.50;4.72;;;-5.30;88.70;;;;;;5034874;28;20022;-76
2021/03/13 03:13:19;;;;;;;12.48;7.57;;;-5.30;88.80;;;;;;5035800;28;20461;-75
2021/03/13 03:15:47;;;;;;;14.02;6.82;;;-5.30;89.00;;;;;;5034844;28;20013;-76
2021/03/13 03:18:17;;;;;;;10.20;6.80;;;-5.30;88.90;;;;;;5045824;28;20433;-75
2021/03/13 03:20:45;;;;;;;10.90;5.93;;;-5.30;89.10;;;;;;5045547;28;20124;-74
2021/03/13 03:23:10;;;;;;;;;;;-5.30;89.20;;;;;;5040439;28;20048;-76
2021/03/13 03:25:36;;;;;;;14.38;8.18;;;-5.30;88.90;;;;;;5040378;28;19905;-75
2021/03/13 03:28:02;;;;;;;11.70;8.07;;;-5.20;89.10;;;;;;5037549;28;20030;-76
2021/03/13 03:30:33;;;;;;;17.35;7.30;;;-5.20;89.40;;;;;;5040324;28;20458;-76
2021/03/13 03:33:00;;;;;;;16.10;11.00;;;-5.20;89.50;;;;;;5033367;28;20033;-77
2021/03/13 03:35:27;;;;;;;16.95;8.13;;;-5.10;89.30;;;;;;5046895;28;20017;-76
2021/03/13 03:37:56;;;;;;;11.07;6.65;;;-5.10;89.20;;;;;;5051926;28;20029;-77
2021/03/13 03:40:26;;;;;;;16.15;6.80;;;-5.10;89.10;;;;;;5051561;28;20032;-80
2021/03/13 03:43:13;;;;;;;8.18;5.97;;;-5.20;89.10;;;;;;5034859;28;20029;-78
2021/03/13 03:45:42;;;;;;;12.93;6.72;;;-5.20;89.30;;;;;;5030993;28;20025;-76
2021/03/13 03:48:15;;;;;;;15.88;9.68;;;-5.20;89.00;;;;;;5039135;28;20065;-78
2021/03/13 03:50:43;;;;;;;10.27;6.22;;;-5.20;89.90;;;;;;5047159;28;20021;-77
2021/03/13 03:53:17;;;;;;;12.18;7.38;;;-5.20;90.00;;;;;;5035887;28;20024;-76
2021/03/13 03:55:47;;;;;;;8.23;6.15;;;-5.30;90.10;;;;;;5048229;28;20029;-79
2021/03/13 03:58:24;;;;;;;13.25;5.88;;;-5.30;90.20;;;;;;5030069;28;20025;-79
2021/03/13 04:00:51;;;;;;;17.50;8.35;;;-5.30;90.30;;;;;;5025388;28;20046;-77
2021/03/13 04:03:20;;;;;;;15.98;7.47;;;-5.30;90.50;;;;;;5036836;28;20025;-78
2021/03/13 04:05:47;;;;;;;19.65;8.20;;;-5.30;90.60;;;;;;5034282;28;20018;-79
2021/03/13 04:08:17;;;;;;;14.68;7.07;;;-5.30;90.60;;;;;;5026135;28;20025;-79
2021/03/13 04:10:49;;;;;;;20.45;8.48;;;-5.30;90.70;;;;;;5043748;28;20474;-76
2021/03/13 04:13:20;;;;;;;16.60;7.18;;;-5.30;90.70;;;;;;5046807;28;20381;-78
2021/03/13 04:15:50;;;;;;;9.77;6.72;;;-5.30;90.70;;;;;;5044633;28;20474;-78
2021/03/13 04:18:17;;;;;;;11.10;7.78;;;-5.30;90.70;;;;;;5018034;28;20108;-79
2021/03/13 04:20:47;;;;;;;10.10;6.18;;;-5.20;90.90;;;;;;5043761;28;20032;-78
2021/03/13 04:23:15;;;;;;;12.13;7.15;;;-5.20;90.90;;;;;;5023170;28;20547;-78
2021/03/13 04:25:42;;;;;;;16.77;9.32;;;-5.20;90.90;;;;;;5018493;28;20024;-79
2021/03/13 04:28:10;;;;;;;13.63;7.95;;;-5.10;91.10;;;;;;5030467;28;20087;-77
2021/03/13 04:30:36;;;;;;;12.02;7.18;;;-5.20;91.00;;;;;;5037114;28;20239;-78
2021/03/13 04:33:04;;;;;;;15.57;6.57;;;-5.20;91.00;;;;;;5015104;28;20065;-77
2021/03/13 04:35:32;;;;;;;17.08;10.90;;;-5.20;91.00;;;;;;5028855;28;20026;-78
2021/03/13 04:37:58;;;;;;;13.13;8.02;;;-5.20;91.10;;;;;;5050831;28;20029;-78
2021/03/13 04:40:25;;;;;;;15.63;8.32;;;-5.10;91.20;;;;;;5025637;28;20051;-77
2021/03/13 04:43:01;;;;;;;25.33;9.10;;;-5.10;91.20;;;;;;5034780;28;20075;-79
2021/03/13 04:45:27;;;;;;;10.75;6.78;;;-5.10;91.20;;;;;;5024160;28;20021;-77
2021/03/13 04:47:53;;;;;;;15.20;8.35;;;-5.10;91.20;;;;;;5044598;28;20033;-79
2021/03/13 04:50:23;;;;;;;16.52;9.30;;;-5.10;91.20;;;;;;5037149;28;20020;-78
2021/03/13 04:52:50;;;;;;;17.30;8.70;;;-5.00;91.30;;;;;;5052599;28;20047;-79
2021/03/13 04:55:16;;;;;;;12.60;8.48;;;-5.00;91.10;;;;;;5027167;28;20033;-78
2021/03/13 04:57:42;;;;;;;8.37;6.27;;;-4.90;91.10;;;;;;5048236;28;20063;-79
2021/03/13 05:00:14;;;;;;;10.23;5.38;;;-4.90;90.70;;;;;;5038217;28;20048;-79
2021/03/13 05:02:40;;;;;;;14.80;6.30;;;-4.90;90.90;;;;;;5057660;28;20021;-79
2021/03/13 05:05:07;;;;;;;12.25;8.63;;;-4.90;90.90;;;;;;5048493;28;20021;-79
2021/03/13 05:07:35;;;;;;;11.38;6.80;;;-4.90;90.90;;;;;;5052575;28;20485;-77
2021/03/13 05:10:03;;;;;;;23.63;8.10;;;-4.90;91.00;;;;;;5051588;28;20102;-78
2021/03/13 05:12:29;;;;;;;12.90;7.55;;;-4.80;90.90;;;;;;5054667;28;20033;-76
2021/03/13 05:14:54;;;;;;;14.10;7.22;;;-4.90;90.80;;;;;;5055825;28;20120;-76
2021/03/13 05:17:20;;;;;;;6.88;5.53;;;-4.80;90.70;;;;;;5058819;28;20028;-78
2021/03/13 05:19:49;;;;;;;9.55;6.05;;;-4.80;90.60;;;;;;5058541;28;20058;-77
2021/03/13 05:22:15;;;;;;;16.67;8.98;;;-4.80;90.60;;;;;;5057046;28;20059;-79
2021/03/13 05:24:41;;;;;;;12.93;6.45;;;-4.70;90.80;;;;;;5052722;28;20025;-78
2021/03/13 05:27:07;;;;;;;14.73;9.60;;;-4.70;90.60;;;;;;5058563;28;20036;-75
2021/03/13 05:29:32;;;;;;;12.57;7.70;;;-4.70;90.60;;;;;;5058592;28;20060;-76
2021/03/13 05:31:58;;;;;;;11.80;7.53;;;-4.60;90.30;;;;;;5057644;28;20137;-78
2021/03/13 05:34:24;;;;;;;14.98;6.80;;;-4.60;90.30;;;;;;5037507;28;20019;-76
2021/03/13 05:36:50;;;;;;;16.17;8.18;;;-4.60;90.20;;;;;;5051743;28;20394;-78
2021/03/13 05:39:16;;;;;;;12.15;7.00;;;-4.60;90.50;;;;;;5058364;28;20017;-77
2021/03/13 05:41:50;;;;;;;10.93;6.65;;;-4.50;90.40;;;;;;5037096;28;20033;-80
2021/03/13 05:44:17;;;;;;;14.10;8.70;;;-4.60;90.20;;;;;;5056647;28;20096;-79
2021/03/13 05:46:44;;;;;;;13.73;8.55;;;-4.60;90.20;;;;;;5060486;28;20028;-78
2021/03/13 05:49:11;;;;;;;10.93;5.95;;;-4.50;90.40;;;;;;5057695;28;20039;-78
2021/03/13 05:51:42;;;;;;;11.10;6.88;;;-4.40;90.60;;;;;;5058289;28;20040;-78
2021/03/13 05:54:08;;;;;;;15.85;7.47;;;-4.40;90.50;;;;;;5056083;28;20043;-78
2021/03/13 05:56:35;;;;;;;18.17;8.75;;;-4.40;90.40;;;;;;5055151;28;20028;-78
2021/03/13 05:59:02;;;;;;;9.15;4.43;;;-4.50;90.20;;;;;;5055449;28;20075;-76
2021/03/13 06:01:29;;;;;;;15.88;8.98;;;-4.50;90.30;;;;;;5033359;28;20057;-78
2021/03/13 06:03:55;;;;;;;;;;;-4.50;90.40;;;;;;5046221;28;20052;-77
2021/03/13 06:06:23;;;;;;;16.80;8.43;;;-4.40;90.50;;;;;;5054422;28;19919;-77
2021/03/13 06:08:50;;;;;;;17.23;8.23;;;-4.40;90.40;;;;;;5055022;28;20021;-76
2021/03/13 06:11:18;;;;;;;8.57;5.72;;;-4.40;90.40;;;;;;5054861;28;20171;-78
2021/03/13 06:13:43;;;;;;;;;;;-4.40;90.50;;;;;;5055377;28;20079;-76
2021/03/13 06:16:10;;;;;;;14.93;8.30;;;-4.40;90.50;;;;;;5054751;28;19904;-75
2021/03/13 06:18:48;;;;;;;9.80;5.95;;;-4.40;90.70;;;;;;5033345;28;20092;-77
2021/03/13 06:21:35;;;;;;;15.35;8.05;;;-4.20;91.00;;;;;;5048464;28;20036;-77
2021/03/13 06:24:24;;;;;;;18.48;7.38;;;-4.30;90.60;;;;;;5053450;28;20020;-75
2021/03/13 06:26:59;;;;;;;11.50;6.10;;;-4.30;90.40;;;;;;5054548;28;20060;-79
2021/03/13 06:29:27;;;;;;;12.63;7.95;;;-4.30;90.60;;;;;;5051833;28;20559;-78
2021/03/13 06:32:13;;;;;;;14.00;7.85;;;-4.20;90.80;;;;;;5054536;28;20371;-77
2021/03/13 06:34:41;;;;;;;12.98;7.20;;;-4.10;90.80;;;;;;5033165;28;20025;-78
2021/03/13 06:37:20;;;;;;;10.75;6.97;;;-4.10;90.50;;;;;;5035795;28;20060;-77
2021/03/13 06:39:46;;;;;;;12.95;8.68;;;-4.00;90.70;;;;;;5043903;28;20036;-76
2021/03/13 06:42:26;;;;;;;22.58;7.03;;;-4.00;90.40;;;;;;5035323;28;20026;-75
2021/03/13 06:45:01;;;;;;;14.98;8.80;;;-4.00;90.50;;;;;;5040443;28;20051;-76
2021/03/13 06:47:37;;;;;;;9.13;6.13;;;-4.00;90.40;;;;;;5055523;28;20032;-76
2021/03/13 06:50:12;;;;;;;15.77;8.60;;;-4.00;90.00;;;;;;5055157;28;20385;-76
2021/03/13 06:52:39;;;;;;;12.85;8.95;;;-4.00;90.20;;;;;;5059375;28;20021;-77
2021/03/13 06:55:06;;;;;;;9.73;5.22;;;-3.80;90.60;;;;;;5071184;28;20041;-76
2021/03/13 06:57:32;;;;;;;9.83;6.80;;;-3.70;90.40;;;;;;5053842;28;20085;-76
2021/03/13 07:00:01;;;;;;;14.68;8.50;;;-3.60;90.30;;;;;;5052910;28;20425;-76
2021/03/13 07:02:27;;;;;;;10.82;5.32;;;-3.70;90.20;;;;;;5042506;28;20018;-75
2021/03/13 07:05:10;;;;;;;15.20;8.13;;;-3.60;90.20;;;;;;5044274;28;20048;-78
2021/03/13 07:07:35;;;;;;;19.73;8.30;;;-3.70;90.10;;;;;;5033675;28;20384;-78
2021/03/13 07:10:05;;;;;;;13.15;7.13;;;-3.70;90.00;;;;;;5027718;28;20046;-79
2021/03/13 07:12:39;;;;;;;11.38;7.10;;;-3.60;90.30;;;;;;5036375;28;20022;-82
2021/03/13 07:15:25;;;;;;;15.10;8.15;;;-3.70;89.50;;;;;;5042506;28;20420;-78
2021/03/13 07:17:56;;;;;;;17.38;7.13;;;-3.70;90.20;;;;;;5032723;28;20444;-80
2021/03/13 07:20:27;;;;;;;12.18;7.78;;;-3.50;90.50;;;;;;5018451;28;20025;-78
2021/03/13 07:22:59;;;;;;;15.55;9.57;;;-3.50;90.20;;;;;;5030860;28;20075;-79
2021/03/13 07:25:27;;;;;;;13.40;8.00;;;-3.40;90.40;;;;;;5032934;28;20028;-77
2021/03/13 07:27:58;;;;;;;11.45;6.55;;;-3.30;90.50;;;;;;5038551;28;20052;-79
2021/03/13 07:30:26;;;;;;;11.65;6.63;;;-3.20;90.10;;;;;;5041827;28;20517;-78
2021/03/13 07:32:59;;;;;;;9.70;6.30;;;-3.30;88.80;;;;;;5033619;28;20026;-79
2021/03/13 07:35:28;;;;;;;17.30;9.30;;;-3.40;88.60;;;;;;5046868;28;20021;-79
2021/03/13 07:37:55;;;;;;;9.23;5.47;;;-3.50;89.00;;;;;;5035252;28;20494;-78
2021/03/13 07:40:23;;;;;;;17.77;8.80;;;-3.40;89.70;;;;;;5051734;28;20040;-77
2021/03/13 07:42:50;;;;;;;9.85;6.22;;;-3.40;89.50;;;;;;5050576;28;20021;-79
2021/03/13 07:45:18;;;;;;;11.10;5.47;;;-3.20;89.80;;;;;;5040135;28;20026;-79
2021/03/13 07:47:44;;;;;;;14.27;8.25;;;-3.20;89.60;;;;;;5037181;28;20036;-77
2021/03/13 07:50:12;;;;;;;14.20;7.18;;;-3.00;90.30;;;;;;5032052;28;20021;-79
2021/03/13 07:52:39;;;;;;;18.75;9.82;;;-3.00;88.70;;;;;;5045754;28;20053;-78
2021/03/13 07:55:16;;;;;;;14.38;8.05;;;-3.00;89.20;;;;;;5049446;28;20021;-80
2021/03/13 07:57:47;;;;;;;16.45;8.90;;;-2.90;89.70;;;;;;5029080;28;20376;-79
2021/03/13 08:00:13;;;;;;;18.00;9.55;;;-2.90;88.80;;;;;;5023389;28;20045;-79
2021/03/13 08:02:42;;;;;;;16.52;8.93;;;-2.80;88.80;;;;;;5036274;28;20028;-78
2021/03/13 08:05:15;;;;;;;12.80;7.13;;;-2.80;89.20;;;;;;5045561;28;20024;-79
2021/03/13 08:07:54;;;;;;;13.73;8.10;;;-2.60;89.80;;;;;;5036316;28;20048;-81
2021/03/13 08:10:59;;;;;;;10.38;7.43;;;-2.50;89.80;;;;;;5030236;28;20044;-81
2021/03/13 08:13:27;;;;;;;12.93;6.45;;;-2.60;88.10;;;;;;4967004;28;20500;-81
2021/03/13 08:16:14;;;;;;;14.77;9.63;;;-2.60;87.30;;;;;;4975003;28;20179;-83
2021/03/13 08:18:42;;;;;;;16.25;9.15;;;-2.70;88.30;;;;;;4970152;28;20043;-84
2021/03/13 08:21:19;;;;;;;8.70;6.07;;;-2.70;88.40;;;;;;4972927;28;20027;-82
2021/03/13 08:23:59;;;;;;;14.73;7.95;;;-2.70;87.20;;;;;;4975067;28;20118;-84
2021/03/13 08:26:40;;;;;;;13.93;9.07;;;-2.70;88.60;;;;;;4961740;28;20090;-83
2021/03/13 08:29:07;;;;;;;14.85;9.27;;;-2.60;89.00;;;;;;4980224;28;20023;-84
2021/03/13 08:31:38;;;;;;;17.27;8.10;;;-2.40;89.20;;;;;;4972178;28;20060;-81
2021/03/13 08:34:10;;;;;;;11.90;7.55;;;-2.20;89.10;;;;;;4979617;28;20031;-79
2021/03/13 08:36:46;;;;;;;14.80;9.10;;;-2.30;87.50;;;;;;4972274;28;20034;-80
2021/03/13 08:39:14;;;;;;;7.38;5.30;;;-2.40;87.30;;;;;;4971662;28;20436;-81
2021/03/13 08:41:43;;;;;;;16.92;8.38;;;-2.60;87.10;;;;;;4974715;28;20035;-79
2021/03/13 08:44:13;;;;;;;9.05;5.50;;;-2.70;87.60;;;;;;5013311;28;20048;-79
2021/03/13 08:46:44;;;;;;;8.65;4.85;;;-2.70;88.80;;;;;;5028030;28;20556;-80
2021/03/13 08:49:20;;;;;;;16.30;7.82;;;-2.70;88.40;;;;;;5030011;28;20466;-82
2021/03/13 08:51:46;;;;;;;14.27;9.48;;;-2.70;88.90;;;;;;5033943;28;20418;-78
2021/03/13 08:54:12;;;;;;;14.50;9.05;;;-2.70;88.50;;;;;;5034768;28;20025;-79
2021/03/13 08:56:52;;;;;;;10.68;7.15;;;-2.60;89.90;;;;;;5038986;28;20025;-78
2021/03/13 08:59:19;;;;;;;11.38;5.30;;;-2.40;90.20;;;;;;5042436;28;20071;-83
2021/03/13 09:02:05;;;;;;;;;;;-2.30;88.60;;;;;;5027316;28;20025;-83
2021/03/13 09:04:34;;;;;;;11.38;7.78;;;-2.30;87.90;;;;;;5029461;28;20005;-82
2021/03/13 09:07:00;;;;;;;15.90;9.68;;;-2.20;89.50;;;;;;5052136;28;20033;-81
2021/03/13 09:09:28;;;;;;;11.27;6.97;;;-2.10;88.70;;;;;;5046446;28;20022;-80
2021/03/13 09:12:09;;;;;;;11.25;7.43;;;-2.00;87.30;;;;;;5038993;28;20033;-79
2021/03/13 09:14:46;;;;;;;15.15;9.13;;;-2.30;86.90;;;;;;5047204;28;20049;-80
2021/03/13 09:17:20;;;;;;;15.02;6.70;;;-2.40;88.20;;;;;;5032475;28;20026;-80
2021/03/13 09:19:47;;;;;;;13.85;7.55;;;-2.20;88.50;;;;;;5038536;28;20025;-77
2021/03/13 09:22:18;;;;;;;17.95;8.63;;;-2.20;89.10;;;;;;5031281;28;20505;-79
2021/03/13 09:25:01;;;;;;;15.02;8.00;;;-2.30;87.40;;;;;;5030604;28;20029;-80
2021/03/13 09:27:29;;;;;;;8.57;7.20;;;-2.30;89.00;;;;;;5032126;28;20041;-80
2021/03/13 09:29:59;;;;;;;9.63;6.25;;;-2.30;88.30;;;;;;5041741;28;20032;-79
2021/03/13 09:32:26;;;;;;;12.75;8.35;;;-2.30;88.40;;;;;;5037990;28;20030;-81
2021/03/13 09:34:54;;;;;;;14.07;6.75;;;-2.40;88.70;;;;;;5035836;28;20014;-83
2021/03/13 09:37:22;;;;;;;16.52;6.88;;;-2.30;88.90;;;;;;5017526;28;20030;-80
2021/03/13 09:39:53;;;;;;;11.65;6.68;;;-2.40;87.80;;;;;;5026295;28;20075;-81
2021/03/13 09:42:24;;;;;;;7.50;4.50;;;-2.40;88.90;;;;;;5033615;28;20029;-77
2021/03/13 09:44:55;;;;;;;13.88;7.03;;;-2.30;89.60;;;;;;5038338;28;20434;-80
2021/03/13 09:47:24;;;;;;;13.70;7.57;;;-2.30;89.60;;;;;;5026390;28;20116;-77
2021/03/13 09:49:58;;;;;;;14.52;7.32;;;-2.20;89.20;;;;;;5037718;28;20521;-79
2021/03/13 09:52:31;;;;;;;14.40;7.10;;;-2.10;89.80;;;;;;5038373;28;20032;-78
2021/03/13 09:55:01;;;;;;;22.25;10.75;;;-2.10;89.50;;;;;;5039302;28;20066;-80
2021/03/13 09:57:27;;;;;;;12.80;8.38;;;-2.00;90.20;;;;;;5038011;28;20479;-79
2021/03/13 09:59:54;;;;;;;18.27;10.52;;;-1.80;90.10;;;;;;5037813;28;20049;-80
2021/03/13 10:02:21;;;;;;;13.57;7.07;;;-1.70;90.10;;;;;;5034100;28;21573;-80
2021/03/13 10:04:52;;;;;;;17.70;8.57;;;-1.70;89.40;;;;;;5033342;28;20018;-81
2021/03/13 10:07:18;;;;;;;8.10;4.50;;;-1.80;89.20;;;;;;5036565;28;20440;-78
2021/03/13 10:09:51;;;;;;;9.15;6.05;;;-1.80;88.40;;;;;;5035248;28;20021;-81
2021/03/13 10:12:26;;;;;;;7.13;4.60;;;-2.00;88.50;;;;;;5017952;28;20513;-81
2021/03/13 10:14:52;;;;;;;12.75;7.60;;;-2.10;89.10;;;;;;5017222;28;20100;-80
2021/03/13 10:17:18;;;;;;;13.68;8.00;;;-2.10;89.60;;;;;;5017505;28;20504;-81
2021/03/13 10:19:44;;;;;;;12.55;8.68;;;-2.00;90.10;;;;;;5017297;28;20104;-81
2021/03/13 10:22:13;;;;;;;14.27;5.95;;;-2.00;89.80;;;;;;5035225;28;20059;-79
2021/03/13 10:24:53;;;;;;;15.60;7.10;;;-2.10;88.20;;;;;;5036398;28;20025;-82
2021/03/13 10:27:29;;;;;;;20.27;7.30;;;-2.20;88.20;;;;;;5032304;28;20045;-84
2021/03/13 10:30:05;;;;;;;19.08;9.10;;;-2.20;89.70;;;;;;5035752;28;20025;-82
2021/03/13 10:32:33;;;;;;;14.20;8.90;;;-2.10;90.00;;;;;;5019443;28;20021;-83
2021/03/13 10:35:16;;;;;;;11.98;7.00;;;-1.90;90.10;;;;;;5051924;28;20334;-81
2021/03/13 10:37:51;;;;;;;15.15;9.55;;;-1.90;89.60;;;;;;5039371;28;20037;-83
2021/03/13 10:40:37;;;;;;;6.75;3.78;;;-1.90;89.20;;;;;;5034834;28;20370;-83
2021/03/13 10:43:11;;;;;;;13.00;7.32;;;-2.00;88.50;;;;;;5025582;28;20021;-85
2021/03/13 10:45:38;;;;;;;10.70;5.55;;;-2.10;89.30;;;;;;5039230;28;20022;-85
2021/03/13 10:48:08;;;;;;;14.35;8.50;;;-2.20;89.40;;;;;;5032927;28;20029;-85
2021/03/13 10:50:40;;;;;;;15.65;8.70;;;-2.20;90.10;;;;;;5044006;28;20022;-84
2021/03/13 10:53:45;;;;;;;9.20;5.63;;;-2.10;90.50;;;;;;5035146;28;20026;-91
2021/03/13 10:56:19;;;;;;;10.25;6.30;;;-2.00;90.00;;;;;;4941684;29;20092;-88
2021/03/13 10:58:57;;;;;;;17.25;8.23;;;-2.10;89.20;;;;;;4942363;29;20032;-87
2021/03/13 11:01:24;;;;;;;12.00;5.55;;;-2.20;90.40;;;;;;4953474;28;20055;-82
2021/03/13 11:03:51;;;;;;;12.93;7.65;;;-2.10;90.30;;;;;;4942092;29;20019;-81
2021/03/13 11:06:24;;;;;;;17.88;9.77;;;-2.10;90.50;;;;;;4956888;29;20042;-84
2021/03/13 11:08:52;;;;;;;18.02;9.02;;;-1.90;91.20;;;;;;4941282;29;20066;-82
2021/03/13 11:11:19;;;;;;;14.77;7.05;;;-1.70;91.20;;;;;;4955692;29;20027;-83
2021/03/13 11:13:45;;;;;;;20.65;8.93;;;-1.80;90.20;;;;;;4954630;29;20121;-82
2021/03/13 11:16:10;;;;;;;14.63;8.70;;;-1.80;90.70;;;;;;4952340;29;20119;-82
2021/03/13 11:18:36;;;;;;;18.98;9.80;;;-1.80;90.30;;;;;;4948912;29;20492;-83
2021/03/13 11:21:03;;;;;;;16.17;9.95;;;-1.80;90.50;;;;;;4953750;29;20031;-81
2021/03/13 11:23:28;;;;;;;16.05;9.48;;;-1.70;90.90;;;;;;4954764;29;20027;-81
2021/03/13 11:25:54;;;;;;;16.77;8.57;;;-1.60;90.70;;;;;;4962605;28;20445;-82
2021/03/13 11:28:20;;;;;;;18.58;9.27;;;-1.60;90.30;;;;;;5017408;28;20071;-84
2021/03/13 11:30:48;;;;;;;13.48;8.90;;;-1.80;90.30;;;;;;5022764;28;20017;-85
2021/03/13 11:33:13;;;;;;;;;;;-1.80;90.80;;;;;;5037213;28;20025;-80
2021/03/13 11:35:39;;;;;;;12.00;5.88;;;-1.70;91.00;;;;;;5019662;28;19905;-82
2021/03/13 11:38:05;;;;;;;12.63;9.00;;;-1.60;90.80;;;;;;5037577;28;20025;-88
2021/03/13 11:40:31;;;;;;;13.32;8.38;;;-1.80;90.20;;;;;;5037683;28;20031;-82
2021/03/13 11:43:00;;;;;;;14.60;9.02;;;-1.90;90.50;;;;;;5036772;28;20025;-82
2021/03/13 11:45:26;;;;;;;18.38;8.73;;;-1.80;90.90;;;;;;5017625;28;20026;-84
2021/03/13 11:47:56;;;;;;;20.55;10.90;;;-1.70;91.20;;;;;;5037086;28;20485;-84
2021/03/13 11:50:29;;;;;;;14.45;9.32;;;-1.60;91.40;;;;;;5040144;28;20017;-86
2021/03/13 11:52:57;;;;;;;14.82;9.50;;;-1.50;91.20;;;;;;5017195;28;20112;-80
2021/03/13 11:55:24;;;;;;;14.82;8.18;;;-1.60;90.70;;;;;;5017788;28;20022;-81
2021/03/13 11:57:50;;;;;;;15.60;9.88;;;-1.80;90.50;;;;;;5034146;28;20025;-87
2021/03/13 12:00:17;;;;;;;10.38;7.25;;;-1.90;90.80;;;;;;5036696;28;20040;-83
2021/03/13 12:02:48;;;;;;;17.60;11.45;;;-1.90;91.00;;;;;;5035710;28;20025;-86
2021/03/13 12:05:14;;;;;;;16.15;9.82;;;-1.90;91.30;;;;;;5023345;28;20073;-85
2021/03/13 12:07:41;;;;;;;8.60;6.50;;;-1.90;91.30;;;;;;5014362;28;20064;-82
2021/03/13 12:10:10;;;;;;;15.55;7.45;;;-2.00;91.00;;;;;;5027958;28;20104;-82
2021/03/13 12:12:37;;;;;;;14.50;9.20;;;-2.10;91.20;;;;;;5017056;28;20394;-80
2021/03/13 12:15:08;;;;;;;28.92;11.85;;;-2.10;91.80;;;;;;5026227;28;20018;-82
2021/03/13 12:17:38;;;;;;;19.85;10.68;;;-2.00;91.90;;;;;;5023540;28;20173;-80
2021/03/13 12:20:06;;;;;;;16.67;9.02;;;-1.90;92.10;;;;;;5007237;28;20117;-82
2021/03/13 12:22:32;;;;;;;17.80;11.00;;;-2.00;91.40;;;;;;5030407;28;20025;-80
2021/03/13 12:24:58;;;;;;;18.92;11.32;;;-2.00;91.80;;;;;;5014964;28;20002;-83
2021/03/13 12:27:24;;;;;;;17.13;10.80;;;-2.00;92.10;;;;;;5023293;28;20082;-86
2021/03/13 12:29:51;;;;;;;16.05;9.93;;;-1.90;92.20;;;;;;5028571;28;20025;-88
2021/03/13 12:32:19;;;;;;;15.15;9.57;;;-1.80;92.40;;;;;;5023762;28;20022;-88
2021/03/13 12:34:46;;;;;;;18.08;10.25;;;-1.80;91.90;;;;;;5025907;28;20375;-83
2021/03/13 12:37:13;;;;;;;18.38;10.50;;;-1.80;92.20;;;;;;5023898;28;20470;-87
2021/03/13 12:39:38;;;;;;;18.60;10.68;;;-1.80;92.20;;;;;;5016916;28;20034;-88
2021/03/13 12:42:05;;;;;;;19.88;11.85;;;-1.70;92.30;;;;;;5036180;28;20107;-80
2021/03/13 12:44:31;;;;;;;12.85;8.05;;;-1.70;92.10;;;;;;5031322;28;20435;-81
2021/03/13 12:46:57;;;;;;;19.83;11.45;;;-1.80;91.20;;;;;;5015808;28;20062;-81
2021/03/13 12:49:22;;;;;;;13.20;9.60;;;-1.90;91.70;;;;;;5043227;28;20063;-85
2021/03/13 12:51:48;;;;;;;15.35;9.23;;;-1.90;91.90;;;;;;5041304;28;20014;-82
2021/03/13 12:54:14;;;;;;;20.80;10.55;;;-1.90;91.40;;;;;;5040002;28;20025;-82